Time;durP1;ratioP1;P1;durP2;ratioP2;P2;SDS_P1;SDS_P2;PMS_P1;PMS_P2;Temp;Humidity;BMP_temperature;BMP_pressure;BME280_temperature;BME280_humidity;BME280_pressure;Samples;Min_cycle;Max_cycle;Signal;HPM_P1;HPM_P2
2022/04/19 00:01:18;;;;;;;8.25;6.68;;;8.90;99.90;;;;;;5088647;27;20160;-81
2022/04/19 00:03:44;;;;;;;8.75;6.63;;;8.80;99.90;;;;;;5107791;27;20042;-81
2022/04/19 00:06:09;;;;;;;8.63;6.40;;;8.90;99.90;;;;;;5110153;27;20046;-80
2022/04/19 00:08:35;;;;;;;9.30;6.38;;;8.90;99.90;;;;;;5105660;27;20065;-80
2022/04/19 00:11:04;;;;;;;7.82;5.60;;;8.80;99.90;;;;;;5092522;27;20095;-80
2022/04/19 00:13:31;;;;;;;7.90;6.20;;;8.80;99.90;;;;;;5106449;27;20429;-81
2022/04/19 00:15:58;;;;;;;8.73;6.20;;;8.70;99.90;;;;;;5106426;27;20131;-80
2022/04/19 00:18:25;;;;;;;7.35;5.75;;;8.50;99.90;;;;;;5124787;27;20051;-81
2022/04/19 00:20:51;;;;;;;6.75;5.95;;;8.40;99.90;;;;;;5109942;27;20057;-80
2022/04/19 00:23:17;;;;;;;7.97;6.47;;;8.30;99.90;;;;;;5126729;27;20043;-81
2022/04/19 00:25:47;;;;;;;7.45;5.75;;;8.30;99.90;;;;;;5145049;27;20042;-80
2022/04/19 00:28:14;;;;;;;8.40;5.35;;;8.20;99.90;;;;;;5110093;27;20054;-81
2022/04/19 00:30:40;;;;;;;7.18;6.25;;;8.10;99.90;;;;;;5108457;27;20039;-80
2022/04/19 00:33:07;;;;;;;7.15;5.88;;;8.00;99.90;;;;;;5124169;27;20211;-80
2022/04/19 00:35:39;;;;;;;7.03;5.80;;;7.90;99.90;;;;;;5126393;27;20122;-80
2022/04/19 00:38:05;;;;;;;8.27;6.38;;;7.90;99.90;;;;;;5110335;27;20046;-80
2022/04/19 00:40:32;;;;;;;8.38;6.47;;;7.90;99.90;;;;;;5108119;27;20039;-80
2022/04/19 00:42:58;;;;;;;7.55;6.55;;;7.80;99.90;;;;;;5126936;27;20045;-80
2022/04/19 00:45:25;;;;;;;7.63;5.95;;;7.70;99.90;;;;;;5092254;27;20543;-80
2022/04/19 00:47:52;;;;;;;7.97;6.45;;;7.80;99.90;;;;;;5109476;27;20480;-80
2022/04/19 00:50:18;;;;;;;9.27;7.03;;;7.80;99.90;;;;;;5108203;27;20450;-80
2022/04/19 00:52:44;;;;;;;7.97;6.70;;;7.70;99.90;;;;;;5107370;27;20047;-80
2022/04/19 00:55:11;;;;;;;10.15;7.03;;;7.60;99.90;;;;;;5126857;27;20099;-80
2022/04/19 00:57:38;;;;;;;9.38;7.18;;;7.50;99.90;;;;;;5145764;27;20038;-80
2022/04/19 01:00:08;;;;;;;9.15;7.28;;;7.40;99.90;;;;;;5144937;27;20043;-81
2022/04/19 01:02:36;;;;;;;8.05;6.75;;;7.30;99.90;;;;;;5145706;27;20065;-80
2022/04/19 01:05:05;;;;;;;7.50;6.70;;;7.30;99.90;;;;;;5110123;27;20050;-80
2022/04/19 01:07:39;;;;;;;8.40;6.60;;;7.30;99.90;;;;;;5093068;27;20046;-80
2022/04/19 01:10:06;;;;;;;8.43;6.75;;;7.30;99.90;;;;;;5111000;27;20133;-80
2022/04/19 01:15:19;;;;;;;9.45;6.93;;;7.30;99.90;;;;;;5126780;27;20072;-80
2022/04/19 01:17:47;;;;;;;6.90;5.97;;;7.20;99.90;;;;;;5123670;27;20054;-80
2022/04/19 01:20:13;;;;;;;9.57;7.18;;;7.20;99.90;;;;;;5124336;27;20484;-81
2022/04/19 01:22:43;;;;;;;7.88;6.85;;;7.20;99.90;;;;;;5075993;27;20046;-80
2022/04/19 01:25:10;;;;;;;8.20;7.10;;;7.10;99.90;;;;;;5090673;27;20042;-79
2022/04/19 01:27:36;;;;;;;9.23;7.28;;;7.10;99.90;;;;;;5146314;27;20047;-80
2022/04/19 01:30:06;;;;;;;9.25;7.85;;;7.10;99.90;;;;;;5128880;27;20047;-80
2022/04/19 01:32:36;;;;;;;8.95;7.68;;;7.00;99.90;;;;;;5111426;27;20434;-80
2022/04/19 01:35:24;;;;;;;10.73;7.63;;;7.00;99.90;;;;;;5111509;27;20047;-80
2022/04/19 01:37:51;;;;;;;8.43;7.47;;;7.00;99.90;;;;;;5130232;27;20092;-80
2022/04/19 01:40:17;;;;;;;8.18;7.38;;;6.90;99.90;;;;;;5096003;27;20524;-80
2022/04/19 01:42:58;;;;;;;8.52;7.63;;;6.90;99.90;;;;;;5130342;27;20042;-80
2022/04/19 01:45:28;;;;;;;8.15;7.35;;;6.90;99.90;;;;;;5130936;27;20047;-80
2022/04/19 01:47:55;;;;;;;8.23;7.27;;;6.80;99.90;;;;;;5114136;27;20074;-80
2022/04/19 01:50:23;;;;;;;9.20;7.50;;;6.80;99.90;;;;;;5113699;27;20053;-80
2022/04/19 01:52:50;;;;;;;10.20;8.27;;;6.70;99.90;;;;;;5092743;27;20034;-80
2022/04/19 01:55:17;;;;;;;9.80;7.65;;;6.70;99.90;;;;;;5130057;27;20074;-79
2022/04/19 01:57:52;;;;;;;9.70;8.10;;;6.60;99.90;;;;;;5106431;27;20493;-80
2022/04/19 02:00:18;;;;;;;9.65;7.68;;;6.60;99.90;;;;;;5143988;27;20828;-80
2022/04/19 02:02:45;;;;;;;10.77;7.57;;;6.60;99.90;;;;;;5149159;27;20057;-80
2022/04/19 02:05:11;;;;;;;10.25;8.25;;;6.60;99.90;;;;;;5113876;27;20834;-80
2022/04/19 02:07:39;;;;;;;10.07;7.80;;;6.60;99.90;;;;;;5114641;27;20058;-80
2022/04/19 02:10:06;;;;;;;8.60;7.70;;;6.60;99.90;;;;;;5097799;27;20050;-79
2022/04/19 02:12:33;;;;;;;10.05;7.82;;;6.60;99.90;;;;;;5080711;27;20555;-80
2022/04/19 02:15:00;;;;;;;9.95;7.78;;;6.60;99.90;;;;;;5111792;27;20556;-80
2022/04/19 02:17:26;;;;;;;10.50;8.80;;;6.60;99.90;;;;;;5112497;27;20050;-80
2022/04/19 02:20:06;;;;;;;9.27;6.97;;;6.60;99.90;;;;;;5148223;27;20050;-80
2022/04/19 02:22:32;;;;;;;;;;;6.60;99.90;;;;;;5131356;27;20043;-80
2022/04/19 02:24:59;;;;;;;10.25;8.13;;;6.50;99.90;;;;;;5150278;27;19923;-80
2022/04/19 02:27:26;;;;;;;10.63;8.23;;;6.50;99.90;;;;;;5131222;27;20058;-80
2022/04/19 02:29:54;;;;;;;11.48;8.45;;;6.50;99.90;;;;;;5130971;27;20046;-79
2022/04/19 02:32:20;;;;;;;9.70;8.70;;;6.50;99.90;;;;;;5110769;27;20047;-80
2022/04/19 02:34:47;;;;;;;10.82;8.82;;;6.50;99.90;;;;;;5075742;27;20049;-80
2022/04/19 02:37:13;;;;;;;11.05;8.93;;;6.50;99.90;;;;;;5084336;27;20058;-80
2022/04/19 02:39:39;;;;;;;10.00;8.18;;;6.50;99.90;;;;;;5092629;27;20429;-80
2022/04/19 02:42:06;;;;;;;11.02;9.65;;;6.50;99.90;;;;;;5108064;27;20043;-80
2022/04/19 02:44:33;;;;;;;11.27;8.90;;;6.40;99.90;;;;;;5127719;27;20050;-80
2022/04/19 02:46:59;;;;;;;11.55;9.32;;;6.30;99.90;;;;;;5093764;27;20047;-80
2022/04/19 02:49:24;;;;;;;9.38;8.40;;;6.20;99.90;;;;;;5109330;27;20207;-80
2022/04/19 02:51:50;;;;;;;10.43;8.50;;;6.10;99.90;;;;;;5119684;27;20035;-80
2022/04/19 02:54:17;;;;;;;9.75;8.27;;;6.00;99.90;;;;;;5091099;27;20058;-80
2022/04/19 02:56:43;;;;;;;10.80;9.57;;;5.90;99.90;;;;;;5105003;27;20594;-80
2022/04/19 02:59:09;;;;;;;10.23;8.95;;;5.80;99.90;;;;;;5085545;27;20046;-80
2022/04/19 03:01:35;;;;;;;10.90;9.40;;;5.70;99.90;;;;;;5120205;27;20046;-80
2022/04/19 03:04:04;;;;;;;11.18;9.05;;;5.70;99.90;;;;;;5105961;27;20528;-79
2022/04/19 03:06:30;;;;;;;10.88;9.35;;;5.60;99.90;;;;;;5124261;27;20381;-80
2022/04/19 03:09:03;;;;;;;10.50;9.43;;;5.60;99.90;;;;;;5105245;27;20501;-80
2022/04/19 03:11:28;;;;;;;10.90;9.35;;;5.50;99.90;;;;;;5108625;27;20050;-79
2022/04/19 03:13:55;;;;;;;12.45;9.93;;;5.50;99.90;;;;;;5108696;27;20066;-80
2022/04/19 03:16:24;;;;;;;11.77;9.75;;;5.50;99.90;;;;;;5124130;27;20046;-79
2022/04/19 03:18:50;;;;;;;11.55;9.73;;;5.60;99.90;;;;;;5122189;27;20039;-80
2022/04/19 03:21:16;;;;;;;10.85;9.75;;;5.50;99.90;;;;;;5091320;27;20552;-79
2022/04/19 03:29:11;;;;;;;12.48;10.48;;;5.40;99.90;;;;;;5124804;27;20101;-78
2022/04/19 03:31:38;;;;;;;11.50;10.30;;;5.40;99.90;;;;;;5105892;27;20043;-80
2022/04/19 03:34:06;;;;;;;12.27;11.05;;;5.40;99.90;;;;;;5143793;27;20073;-79
2022/04/19 03:36:35;;;;;;;13.77;11.52;;;5.50;99.90;;;;;;5106097;27;20493;-79
2022/04/19 03:39:00;;;;;;;13.68;11.05;;;5.50;99.90;;;;;;5143830;27;20026;-79
2022/04/19 03:41:26;;;;;;;13.00;10.30;;;5.50;99.90;;;;;;5125253;27;20046;-79
2022/04/19 03:43:52;;;;;;;13.85;11.07;;;5.60;99.90;;;;;;5108384;27;20085;-78
2022/04/19 03:46:18;;;;;;;12.65;11.35;;;5.60;99.90;;;;;;5125646;27;20230;-80
2022/04/19 03:48:44;;;;;;;12.30;10.10;;;5.70;99.90;;;;;;5125726;27;20965;-80
2022/04/19 03:51:10;;;;;;;11.93;10.73;;;5.80;99.90;;;;;;5105225;27;20248;-80
2022/04/19 03:53:36;;;;;;;13.25;10.75;;;5.70;99.90;;;;;;5123295;27;20041;-80
2022/04/19 03:56:05;;;;;;;13.45;10.93;;;5.70;99.90;;;;;;5122021;27;20122;-80
2022/04/19 03:58:32;;;;;;;12.82;11.43;;;5.60;99.90;;;;;;5124630;27;20200;-80
2022/04/19 04:01:00;;;;;;;11.75;10.55;;;5.60;99.90;;;;;;5104708;27;20054;-80
2022/04/19 04:03:26;;;;;;;12.48;11.23;;;5.60;99.90;;;;;;5108957;27;20825;-80
2022/04/19 04:05:51;;;;;;;12.57;10.82;;;5.70;99.90;;;;;;5126823;27;20075;-80
2022/04/19 04:08:18;;;;;;;12.00;10.68;;;5.80;99.90;;;;;;5110686;27;20054;-80
2022/04/19 04:10:44;;;;;;;12.43;10.77;;;5.80;99.90;;;;;;5126569;27;20500;-80
2022/04/19 04:13:09;;;;;;;12.55;11.10;;;5.90;99.90;;;;;;5126059;27;20067;-80
2022/04/19 04:15:36;;;;;;;11.68;10.48;;;5.90;99.90;;;;;;5125983;27;20069;-80
2022/04/19 04:18:02;;;;;;;13.30;10.88;;;6.00;99.90;;;;;;5137913;27;20054;-79
2022/04/19 04:20:28;;;;;;;12.43;11.10;;;6.00;99.90;;;;;;5088150;27;20125;-80
2022/04/19 04:22:54;;;;;;;12.65;11.25;;;6.00;99.90;;;;;;5076020;27;20161;-79
2022/04/19 04:25:20;;;;;;;13.13;10.77;;;6.00;99.90;;;;;;5088575;27;20047;-80
2022/04/19 04:27:47;;;;;;;13.65;10.82;;;6.10;99.90;;;;;;5090936;27;20043;-80
2022/04/19 04:30:12;;;;;;;13.40;10.45;;;6.10;99.90;;;;;;5124614;27;20038;-80
2022/04/19 04:32:38;;;;;;;13.73;11.40;;;6.10;99.90;;;;;;5108985;27;20057;-79
2022/04/19 04:35:05;;;;;;;12.23;10.80;;;6.10;99.90;;;;;;5091858;27;20548;-80
2022/04/19 04:37:31;;;;;;;14.40;11.25;;;6.10;99.90;;;;;;5091373;27;20047;-80
2022/04/19 04:39:57;;;;;;;16.05;11.35;;;6.10;99.90;;;;;;5108890;27;20744;-79
2022/04/19 04:42:23;;;;;;;13.43;10.75;;;6.10;99.90;;;;;;5075264;27;20820;-80
2022/04/19 04:44:48;;;;;;;12.32;10.98;;;6.10;99.90;;;;;;5108201;27;20174;-79
2022/04/19 04:50:00;;;;;;;13.05;11.10;;;6.10;99.90;;;;;;5120909;27;20050;-80
2022/04/19 04:52:26;;;;;;;14.43;11.38;;;6.10;99.90;;;;;;5124966;27;20647;-80
2022/04/19 04:54:51;;;;;;;14.18;11.60;;;6.10;99.90;;;;;;5106122;28;20108;-80
2022/04/19 04:57:19;;;;;;;13.20;11.63;;;6.10;99.90;;;;;;5080377;27;20051;-79
2022/04/19 04:59:47;;;;;;;13.93;11.27;;;6.10;99.90;;;;;;5134780;27;20213;-80
2022/04/19 05:02:13;;;;;;;13.95;11.23;;;6.10;99.90;;;;;;5101418;27;20087;-80
2022/04/19 05:04:39;;;;;;;13.13;11.38;;;6.10;99.90;;;;;;5127266;27;20099;-79
2022/04/19 05:07:05;;;;;;;12.82;11.07;;;6.10;99.90;;;;;;5094472;27;20454;-80
2022/04/19 05:09:31;;;;;;;12.82;11.52;;;6.20;99.90;;;;;;5092216;27;20074;-80
2022/04/19 05:11:57;;;;;;;14.63;11.73;;;6.20;99.90;;;;;;5094038;27;20042;-80
2022/04/19 05:14:23;;;;;;;16.13;12.38;;;6.20;99.90;;;;;;5093156;27;20404;-79
2022/04/19 05:16:49;;;;;;;13.25;11.32;;;6.30;99.90;;;;;;5136823;27;20050;-80
2022/04/19 05:19:15;;;;;;;14.63;12.32;;;6.40;99.90;;;;;;5108064;27;20059;-80
2022/04/19 05:21:41;;;;;;;15.70;12.38;;;6.40;99.90;;;;;;5103317;27;20053;-79
2022/04/19 05:24:08;;;;;;;13.10;11.73;;;6.50;99.90;;;;;;5123615;27;20035;-79
2022/04/19 05:26:35;;;;;;;12.88;11.57;;;6.50;99.90;;;;;;5116851;27;20305;-79
2022/04/19 05:29:01;;;;;;;14.27;11.93;;;6.60;99.90;;;;;;5122523;27;20070;-78
2022/04/19 05:31:27;;;;;;;13.88;11.35;;;6.70;99.90;;;;;;5117465;27;20042;-78
2022/04/19 05:33:53;;;;;;;16.58;11.23;;;6.70;99.90;;;;;;5108372;27;20055;-79
2022/04/19 05:36:19;;;;;;;12.35;10.75;;;6.80;99.90;;;;;;5089247;27;20047;-79
2022/04/19 05:38:45;;;;;;;12.60;11.25;;;6.90;99.90;;;;;;5125714;27;20409;-79
2022/04/19 05:41:11;;;;;;;13.77;11.75;;;7.00;99.90;;;;;;5122315;27;20078;-79
2022/04/19 05:43:37;;;;;;;13.73;11.80;;;7.10;99.90;;;;;;5117685;27;20042;-79
2022/04/19 05:46:03;;;;;;;11.85;10.65;;;7.20;99.90;;;;;;5107231;27;20065;-79
2022/04/19 05:48:29;;;;;;;12.45;11.15;;;7.30;99.90;;;;;;5101071;27;20489;-80
2022/04/19 05:50:55;;;;;;;15.57;12.57;;;7.40;99.90;;;;;;5121366;27;20569;-79
2022/04/19 05:53:21;;;;;;;12.02;10.82;;;7.50;99.90;;;;;;5117876;27;20448;-79
2022/04/19 05:55:47;;;;;;;13.68;10.93;;;7.60;99.90;;;;;;5105859;27;20043;-79
2022/04/19 05:58:13;;;;;;;14.07;11.18;;;7.70;99.90;;;;;;5127651;27;20524;-79
2022/04/19 06:00:40;;;;;;;12.73;10.77;;;7.70;99.90;;;;;;5120509;27;20478;-79
2022/04/19 06:05:53;;;;;;;12.70;11.15;;;7.90;99.90;;;;;;5114301;27;20046;-78
2022/04/19 06:08:22;;;;;;;13.93;11.30;;;8.10;99.90;;;;;;5100011;27;20057;-79
2022/04/19 06:10:49;;;;;;;15.35;10.45;;;8.20;99.90;;;;;;5115274;27;20405;-79
2022/04/19 06:13:16;;;;;;;15.23;11.55;;;8.30;99.90;;;;;;5087594;27;20459;-77
2022/04/19 06:15:42;;;;;;;12.95;11.10;;;8.40;99.90;;;;;;5091751;27;20491;-79
2022/04/19 06:18:08;;;;;;;11.90;10.70;;;8.50;99.90;;;;;;5144546;27;20039;-80
2022/04/19 06:20:34;;;;;;;12.50;11.20;;;8.60;99.90;;;;;;5094490;27;20046;-79
2022/04/19 06:23:00;;;;;;;14.10;10.90;;;8.70;99.90;;;;;;5093244;27;20471;-78
2022/04/19 06:25:26;;;;;;;12.93;11.13;;;8.80;99.90;;;;;;5092425;27;20047;-80
2022/04/19 06:27:56;;;;;;;13.80;11.07;;;8.90;99.90;;;;;;5096414;27;20269;-80
2022/04/19 06:30:25;;;;;;;13.82;10.60;;;9.00;99.90;;;;;;5107098;27;20079;-79
2022/04/19 06:32:52;;;;;;;12.88;10.35;;;9.10;99.90;;;;;;5078809;27;20101;-79
2022/04/19 06:35:18;;;;;;;12.05;10.50;;;9.20;99.90;;;;;;5147016;27;20073;-79
2022/04/19 06:37:44;;;;;;;12.30;10.70;;;9.30;99.90;;;;;;5106673;27;20532;-79
2022/04/19 06:40:10;;;;;;;12.73;9.93;;;9.50;99.90;;;;;;5108642;27;20082;-79
2022/04/19 06:42:36;;;;;;;12.35;10.30;;;9.60;99.90;;;;;;5108882;27;20046;-79
2022/04/19 06:45:02;;;;;;;10.90;9.55;;;9.70;99.90;;;;;;5074666;27;20057;-79
2022/04/19 06:47:28;;;;;;;12.98;10.15;;;9.80;99.90;;;;;;5091359;27;20079;-79
2022/04/19 06:49:57;;;;;;;12.10;9.82;;;9.90;99.90;;;;;;5105848;27;20066;-78
2022/04/19 06:52:24;;;;;;;13.27;9.43;;;10.10;99.90;;;;;;5119635;27;20090;-79
2022/04/19 06:54:50;;;;;;;11.05;9.02;;;10.20;99.90;;;;;;5107834;27;20038;-79
2022/04/19 06:57:15;;;;;;;11.48;8.90;;;10.40;99.90;;;;;;5120969;27;20601;-79
2022/04/19 06:59:41;;;;;;;11.10;9.38;;;10.50;99.90;;;;;;5085126;27;20039;-80
2022/04/19 07:02:07;;;;;;;12.27;9.32;;;10.70;99.90;;;;;;5111572;27;20088;-79
2022/04/19 07:04:33;;;;;;;10.43;9.32;;;10.80;99.90;;;;;;5110448;27;20085;-78
2022/04/19 07:06:59;;;;;;;12.80;9.73;;;10.90;99.90;;;;;;5091370;27;20456;-79
2022/04/19 07:09:26;;;;;;;10.63;8.38;;;11.00;99.90;;;;;;5092628;27;20043;-80
2022/04/19 07:11:52;;;;;;;11.18;8.35;;;11.10;99.90;;;;;;5106377;27;20239;-79
2022/04/19 07:14:18;;;;;;;11.57;8.80;;;11.30;99.90;;;;;;5092327;27;20039;-79
2022/04/19 07:16:44;;;;;;;10.90;8.48;;;11.40;99.90;;;;;;5083358;28;20055;-79
2022/04/19 07:19:10;;;;;;;10.63;8.43;;;11.50;99.90;;;;;;5115942;27;20607;-79
2022/04/19 07:27:04;;;;;;;10.07;8.13;;;12.00;99.90;;;;;;5110391;27;20085;-79
2022/04/19 07:29:33;;;;;;;10.02;8.00;;;12.10;99.90;;;;;;5099205;28;20083;-79
2022/04/19 07:31:59;;;;;;;11.40;8.25;;;12.30;99.90;;;;;;5082677;28;20115;-79
2022/04/19 07:34:25;;;;;;;10.40;7.85;;;12.40;99.90;;;;;;5075957;27;20122;-77
2022/04/19 07:36:51;;;;;;;8.77;6.72;;;12.60;99.90;;;;;;5120432;27;20613;-80
2022/04/19 07:39:17;;;;;;;12.10;6.85;;;12.80;99.30;;;;;;5074495;27;20055;-79
2022/04/19 07:41:47;;;;;;;9.95;7.35;;;13.00;99.60;;;;;;5102528;27;20302;-79
2022/04/19 07:44:15;;;;;;;8.65;6.13;;;13.10;97.90;;;;;;5085280;28;20482;-79
2022/04/19 07:46:42;;;;;;;8.07;5.68;;;13.30;97.20;;;;;;5121031;27;20051;-77
2022/04/19 07:49:08;;;;;;;8.48;5.78;;;13.50;96.20;;;;;;5085946;28;20123;-77
2022/04/19 07:51:35;;;;;;;8.90;6.53;;;13.60;94.50;;;;;;5106471;27;20040;-78
2022/04/19 07:54:01;;;;;;;8.95;6.60;;;13.80;94.70;;;;;;5110047;27;20111;-79
2022/04/19 07:56:27;;;;;;;7.18;5.50;;;13.90;94.00;;;;;;5089623;27;20070;-79
2022/04/19 07:58:53;;;;;;;8.77;5.53;;;14.00;92.40;;;;;;5068681;27;20039;-79
2022/04/19 08:01:19;;;;;;;7.10;5.65;;;14.10;91.00;;;;;;5119789;27;20141;-77
2022/04/19 08:03:45;;;;;;;9.63;7.07;;;14.20;90.20;;;;;;5115430;27;20047;-77
2022/04/19 08:06:12;;;;;;;8.35;6.30;;;14.40;90.10;;;;;;5106502;27;20054;-78
2022/04/19 08:08:42;;;;;;;8.00;6.50;;;14.40;89.10;;;;;;5102700;27;20058;-78
2022/04/19 08:11:08;;;;;;;;;;;14.50;89.00;;;;;;5102026;28;20130;-78
2022/04/19 08:13:34;;;;;;;8.00;5.65;;;14.60;90.00;;;;;;5086964;28;20056;-78
2022/04/19 08:16:00;;;;;;;8.57;5.35;;;14.70;88.70;;;;;;5105251;27;20063;-81
2022/04/19 08:18:26;;;;;;;7.90;5.60;;;14.80;80.30;;;;;;5103603;27;20056;-80
2022/04/19 08:20:52;;;;;;;8.30;5.88;;;14.80;79.80;;;;;;5119852;27;20050;-78
2022/04/19 08:23:18;;;;;;;7.65;5.93;;;14.90;79.00;;;;;;5105765;27;20050;-79
2022/04/19 08:25:44;;;;;;;8.02;5.78;;;14.90;79.40;;;;;;5107621;27;20070;-79
2022/04/19 08:28:10;;;;;;;9.05;6.00;;;15.00;77.60;;;;;;5090435;27;20058;-79
2022/04/19 08:30:36;;;;;;;8.73;6.10;;;15.10;80.60;;;;;;5124897;27;20035;-80
2022/04/19 08:33:02;;;;;;;8.38;6.72;;;15.20;78.90;;;;;;5121653;27;20054;-80
2022/04/19 08:35:28;;;;;;;10.60;6.90;;;15.10;79.60;;;;;;5105541;28;20505;-80
2022/04/19 08:37:54;;;;;;;9.55;7.10;;;15.20;84.40;;;;;;5120871;27;20058;-81
2022/04/19 08:40:20;;;;;;;8.93;6.75;;;15.30;83.50;;;;;;5105756;28;20042;-79
2022/04/19 08:42:46;;;;;;;8.45;5.82;;;15.30;83.10;;;;;;5116995;27;20137;-79
2022/04/19 08:45:15;;;;;;;8.63;5.10;;;15.20;81.00;;;;;;5117799;28;20054;-79
2022/04/19 08:47:48;;;;;;;8.27;5.60;;;15.20;78.90;;;;;;5121299;28;20537;-79
2022/04/19 08:50:17;;;;;;;8.43;5.80;;;15.20;78.70;;;;;;5104156;28;20035;-79
2022/04/19 08:52:44;;;;;;;8.27;6.35;;;15.20;80.40;;;;;;5104661;28;20042;-80
2022/04/19 08:57:55;;;;;;;7.75;5.53;;;15.30;79.50;;;;;;5122731;27;20121;-79
2022/04/19 09:00:23;;;;;;;7.85;5.95;;;15.30;78.00;;;;;;5098358;27;20564;-78
2022/04/19 09:02:51;;;;;;;8.25;5.68;;;15.30;78.70;;;;;;5115062;27;20039;-79
2022/04/19 09:05:20;;;;;;;5.80;4.50;;;15.30;77.80;;;;;;5106729;28;20563;-79
2022/04/19 09:07:50;;;;;;;5.80;4.75;;;15.50;74.10;;;;;;5104064;28;20061;-79
2022/04/19 09:10:29;;;;;;;7.38;4.85;;;15.50;72.80;;;;;;5119116;27;20058;-80
2022/04/19 09:13:08;;;;;;;7.53;4.65;;;15.50;73.00;;;;;;5087438;28;20051;-81
2022/04/19 09:15:42;;;;;;;5.63;3.92;;;15.60;72.20;;;;;;5121142;27;20112;-80
2022/04/19 09:18:33;;;;;;;6.40;3.30;;;15.70;68.10;;;;;;5124636;27;20547;-80
2022/04/19 09:21:01;;;;;;;5.65;4.03;;;15.80;67.10;;;;;;5108584;27;20039;-80
2022/04/19 09:23:30;;;;;;;7.13;3.45;;;15.90;65.90;;;;;;5126903;27;20130;-79
2022/04/19 09:26:08;;;;;;;5.45;3.22;;;15.90;63.90;;;;;;5104044;27;20042;-79
2022/04/19 09:28:34;;;;;;;6.80;4.13;;;16.00;64.10;;;;;;5103796;27;20254;-81
2022/04/19 09:31:01;;;;;;;4.95;2.92;;;16.20;61.70;;;;;;5125876;27;20552;-80
2022/04/19 09:33:29;;;;;;;5.85;2.38;;;16.20;60.10;;;;;;5089430;27;20172;-81
2022/04/19 09:36:03;;;;;;;5.43;2.67;;;16.30;55.00;;;;;;5124592;27;20042;-81
2022/04/19 09:38:43;;;;;;;5.45;2.40;;;16.40;52.90;;;;;;5123942;27;20179;-79
2022/04/19 09:41:11;;;;;;;5.80;2.00;;;16.40;51.30;;;;;;5124299;27;20050;-81
2022/04/19 09:43:38;;;;;;;3.45;2.08;;;16.50;50.00;;;;;;5141297;27;20401;-81
2022/04/19 09:46:05;;;;;;;3.30;1.40;;;16.60;48.40;;;;;;5107980;27;20516;-75
2022/04/19 09:48:36;;;;;;;4.07;1.80;;;16.60;47.60;;;;;;5122316;27;20031;-80
2022/04/19 09:51:08;;;;;;;3.78;1.83;;;16.70;46.50;;;;;;5110015;27;20392;-80
2022/04/19 09:53:44;;;;;;;2.03;1.23;;;16.60;47.40;;;;;;5126947;27;20054;-78
2022/04/19 09:56:18;;;;;;;4.45;2.00;;;16.60;47.50;;;;;;5125679;27;20074;-81
2022/04/19 09:59:03;;;;;;;8.20;1.98;;;16.80;47.50;;;;;;5125730;27;20065;-81
2022/04/19 10:09:37;;;;;;;2.60;1.60;;;17.00;45.60;;;;;;5093922;27;20061;-80
2022/04/19 10:12:06;;;;;;;3.00;1.85;;;17.10;43.70;;;;;;5106755;27;20490;-83
2022/04/19 10:14:35;;;;;;;3.80;2.20;;;17.10;46.00;;;;;;5121673;27;20058;-80
2022/04/19 10:17:04;;;;;;;4.97;2.30;;;17.20;46.20;;;;;;5119122;27;20047;-81
2022/04/19 10:19:30;;;;;;;4.97;2.33;;;17.10;46.70;;;;;;5102313;27;20650;-80
2022/04/19 10:22:06;;;;;;;3.65;2.00;;;17.10;47.00;;;;;;5120580;27;20043;-81
2022/04/19 10:24:45;;;;;;;5.03;2.05;;;17.10;47.80;;;;;;5117349;27;20083;-80
2022/04/19 10:27:11;;;;;;;4.10;1.98;;;17.20;49.20;;;;;;5104534;27;20047;-80
2022/04/19 10:29:37;;;;;;;3.38;2.20;;;17.30;47.60;;;;;;5108314;27;20062;-77
2022/04/19 10:32:11;;;;;;;5.18;2.65;;;17.50;45.50;;;;;;5107980;27;20039;-81
2022/04/19 10:34:39;;;;;;;4.45;2.40;;;17.30;45.90;;;;;;5122120;27;20039;-82
2022/04/19 10:37:11;;;;;;;3.65;2.42;;;17.30;46.90;;;;;;5108361;27;20039;-78
2022/04/19 10:39:49;;;;;;;4.88;2.35;;;17.30;48.10;;;;;;5121335;27;20149;-81
2022/04/19 10:42:32;;;;;;;4.10;2.00;;;17.50;47.90;;;;;;5125818;27;20078;-83
2022/04/19 10:45:13;;;;;;;3.58;2.05;;;17.60;46.60;;;;;;5107231;27;20036;-80
2022/04/19 10:47:51;;;;;;;4.15;2.50;;;17.60;47.30;;;;;;5121642;27;20046;-81
2022/04/19 10:50:32;;;;;;;4.13;2.50;;;17.70;47.90;;;;;;5120635;27;20542;-81
2022/04/19 10:53:00;;;;;;;4.15;2.03;;;17.70;48.40;;;;;;5107723;27;20043;-81
2022/04/19 10:55:28;;;;;;;3.65;2.20;;;17.70;46.90;;;;;;5105586;27;20050;-82
2022/04/19 10:58:06;;;;;;;4.63;2.40;;;17.70;47.20;;;;;;5118722;27;20047;-83
2022/04/19 11:00:36;;;;;;;4.72;2.70;;;17.60;48.70;;;;;;5120330;27;20050;-77
2022/04/19 11:03:07;;;;;;;5.60;2.45;;;17.70;47.30;;;;;;5097918;27;20039;-79
2022/04/19 11:05:41;;;;;;;4.85;2.38;;;17.60;48.60;;;;;;5121918;27;20542;-81
2022/04/19 11:08:20;;;;;;;2.97;2.08;;;17.60;48.70;;;;;;5106171;27;20493;-82
2022/04/19 11:10:47;;;;;;;4.47;2.00;;;17.80;49.90;;;;;;5123509;27;20086;-80
2022/04/19 11:13:13;;;;;;;5.85;2.05;;;17.90;47.70;;;;;;5121802;27;20080;-80
2022/04/19 11:15:42;;;;;;;4.63;2.00;;;17.90;47.60;;;;;;5126501;27;20054;-82
2022/04/19 11:18:28;;;;;;;4.20;2.08;;;17.90;48.70;;;;;;5104780;27;20443;-80
2022/04/19 11:20:57;;;;;;;4.05;2.10;;;18.00;47.20;;;;;;5108157;27;20053;-81
2022/04/19 11:23:25;;;;;;;3.70;2.40;;;17.90;46.70;;;;;;5139432;27;20049;-82
2022/04/19 11:25:52;;;;;;;5.07;2.10;;;17.90;47.80;;;;;;5104525;27;20046;-81
2022/04/19 11:28:19;;;;;;;4.45;2.50;;;18.00;48.60;;;;;;5116795;27;20051;-82
2022/04/19 11:30:55;;;;;;;3.17;1.85;;;18.10;48.10;;;;;;5103712;27;20047;-81
2022/04/19 11:33:26;;;;;;;5.38;2.50;;;18.10;47.10;;;;;;5126159;27;20521;-81
2022/04/19 11:36:07;;;;;;;6.05;2.75;;;18.10;47.70;;;;;;5126506;27;20393;-80
2022/04/19 11:38:55;;;;;;;4.68;2.80;;;18.00;47.50;;;;;;5124162;27;20107;-77
2022/04/19 11:46:57;;;;;;;4.05;2.60;;;18.20;47.70;;;;;;5071252;27;20103;-80
2022/04/19 11:49:25;;;;;;;3.85;2.10;;;18.10;47.60;;;;;;5092223;27;20045;-79
2022/04/19 11:51:54;;;;;;;3.58;2.15;;;18.10;49.10;;;;;;5108670;27;20118;-81
2022/04/19 11:54:21;;;;;;;5.18;2.30;;;18.20;47.60;;;;;;5109317;27;20087;-81
2022/04/19 11:56:54;;;;;;;5.25;2.30;;;18.20;47.50;;;;;;5121791;27;20047;-81
2022/04/19 11:59:31;;;;;;;5.78;2.88;;;18.20;48.30;;;;;;5128589;27;20052;-80
2022/04/19 12:01:58;;;;;;;2.83;2.30;;;18.40;47.70;;;;;;5106800;27;20051;-78
2022/04/19 12:04:25;;;;;;;4.15;2.38;;;18.30;47.10;;;;;;5106695;27;20051;-77
2022/04/19 12:06:58;;;;;;;10.93;2.88;;;18.30;47.90;;;;;;5110221;27;20046;-74
2022/04/19 12:09:24;;;;;;;3.58;2.45;;;18.40;47.70;;;;;;5127394;27;20054;-81
2022/04/19 12:11:51;;;;;;;5.15;2.45;;;18.40;47.80;;;;;;5122315;27;20047;-81
2022/04/19 12:14:31;;;;;;;4.82;2.50;;;18.50;47.90;;;;;;5108766;27;20050;-80
2022/04/19 12:16:59;;;;;;;6.15;3.00;;;18.60;45.80;;;;;;5121293;27;20111;-77
2022/04/19 12:19:32;;;;;;;4.75;2.97;;;18.60;46.50;;;;;;5111297;27;20393;-75
2022/04/19 12:22:02;;;;;;;5.90;3.15;;;18.50;46.00;;;;;;5094574;27;20042;-77
2022/04/19 12:24:55;;;;;;;5.25;3.30;;;18.50;47.50;;;;;;5095141;28;20048;-80
2022/04/19 12:27:39;;;;;;;12.15;3.65;;;18.50;47.50;;;;;;5110659;27;20055;-79
2022/04/19 12:30:12;;;;;;;5.32;3.15;;;18.50;47.40;;;;;;5108249;27;20041;-81
2022/04/19 12:32:52;;;;;;;4.72;2.83;;;18.40;48.60;;;;;;5102843;27;20058;-82
2022/04/19 12:35:35;;;;;;;6.53;3.13;;;18.40;49.10;;;;;;5086695;28;20039;-82
2022/04/19 12:38:13;;;;;;;6.47;2.70;;;18.70;47.90;;;;;;5097344;28;20111;-77
2022/04/19 12:40:40;;;;;;;7.30;2.75;;;18.70;47.20;;;;;;5104758;28;20079;-82
2022/04/19 12:43:06;;;;;;;6.03;2.55;;;18.70;46.40;;;;;;5083902;28;20043;-82
2022/04/19 12:45:36;;;;;;;2.83;2.10;;;18.70;46.10;;;;;;5099922;28;20048;-79
2022/04/19 12:48:04;;;;;;;3.03;2.00;;;18.60;45.70;;;;;;5082536;28;20055;-79
2022/04/19 12:50:30;;;;;;;3.50;2.20;;;18.50;46.50;;;;;;5091899;28;20052;-80
2022/04/19 12:52:56;;;;;;;6.47;2.10;;;18.70;45.10;;;;;;5096414;28;20036;-80
2022/04/19 12:55:29;;;;;;;16.73;3.08;;;18.70;45.00;;;;;;5098734;28;20043;-81
2022/04/19 12:58:10;;;;;;;4.05;1.88;;;18.60;45.90;;;;;;5102829;28;20051;-81
2022/04/19 13:00:36;;;;;;;4.85;2.22;;;18.60;45.40;;;;;;5079554;28;20355;-82
2022/04/19 13:03:03;;;;;;;6.43;3.10;;;18.80;45.40;;;;;;5103701;28;20047;-78
2022/04/19 13:13:43;;;;;;;3.75;2.08;;;18.90;46.40;;;;;;5089346;28;20117;-79
2022/04/19 13:16:09;;;;;;;5.30;2.20;;;18.80;45.90;;;;;;5119063;27;20090;-79
2022/04/19 13:18:35;;;;;;;4.43;2.05;;;18.90;47.20;;;;;;5104579;27;20499;-80
2022/04/19 13:21:02;;;;;;;2.58;1.63;;;19.00;46.80;;;;;;5091845;27;20046;-81
2022/04/19 13:23:29;;;;;;;3.97;2.50;;;19.00;47.00;;;;;;5069752;27;20441;-77
2022/04/19 13:25:55;;;;;;;5.63;2.20;;;19.10;45.50;;;;;;5110225;27;20514;-78
2022/04/19 13:28:25;;;;;;;6.85;2.35;;;19.10;45.30;;;;;;5127416;27;20043;-80
2022/04/19 13:30:52;;;;;;;;;;;19.00;46.00;;;;;;5112880;27;20567;-80
2022/04/19 13:33:17;;;;;;;4.22;2.38;;;19.00;46.80;;;;;;5126314;27;19923;-78
2022/04/19 13:35:43;;;;;;;3.25;2.13;;;19.10;45.60;;;;;;5111552;27;20050;-75